sensor_id;sensor_type;location;lat;lon;timestamp;P1;durP1;ratioP1;P2;durP2;ratioP2
18997;SDS011;9632;51.018;4.284;2022-08-03T00:02:22;4.25;;;1.50;;
18997;SDS011;9632;51.018;4.284;2022-08-03T00:04:47;2.03;;;1.08;;
18997;SDS011;9632;51.018;4.284;2022-08-03T00:07:13;2.20;;;1.00;;
18997;SDS011;9632;51.018;4.284;2022-08-03T00:09:39;2.33;;;0.80;;
18997;SDS011;9632;51.018;4.284;2022-08-03T00:12:05;2.45;;;0.80;;
18997;SDS011;9632;51.018;4.284;2022-08-03T00:14:30;4.32;;;1.15;;
18997;SDS011;9632;51.018;4.284;2022-08-03T00:16:56;2.88;;;0.98;;
18997;SDS011;9632;51.018;4.284;2022-08-03T00:19:22;2.42;;;0.90;;
18997;SDS011;9632;51.018;4.284;2022-08-03T00:21:48;3.70;;;0.80;;
18997;SDS011;9632;51.018;4.284;2022-08-03T00:24:13;3.75;;;1.00;;
18997;SDS011;9632;51.018;4.284;2022-08-03T00:26:39;3.53;;;0.90;;
18997;SDS011;9632;51.018;4.284;2022-08-03T00:29:05;4.47;;;1.13;;
18997;SDS011;9632;51.018;4.284;2022-08-03T00:31:30;4.13;;;1.13;;
18997;SDS011;9632;51.018;4.284;2022-08-03T00:33:56;2.08;;;0.80;;
18997;SDS011;9632;51.018;4.284;2022-08-03T00:36:21;2.30;;;0.98;;
18997;SDS011;9632;51.018;4.284;2022-08-03T00:38:47;2.45;;;0.98;;
18997;SDS011;9632;51.018;4.284;2022-08-03T00:41:13;3.05;;;0.80;;
18997;SDS011;9632;51.018;4.284;2022-08-03T00:43:38;3.03;;;1.08;;
18997;SDS011;9632;51.018;4.284;2022-08-03T00:46:04;2.25;;;0.73;;
18997;SDS011;9632;51.018;4.284;2022-08-03T00:48:29;2.20;;;0.90;;
18997;SDS011;9632;51.018;4.284;2022-08-03T00:50:55;2.35;;;0.90;;
18997;SDS011;9632;51.018;4.284;2022-08-03T00:53:21;4.90;;;1.08;;
18997;SDS011;9632;51.018;4.284;2022-08-03T00:55:48;1.67;;;0.73;;
18997;SDS011;9632;51.018;4.284;2022-08-03T00:58:13;2.78;;;0.98;;
18997;SDS011;9632;51.018;4.284;2022-08-03T01:00:39;2.70;;;0.93;;
18997;SDS011;9632;51.018;4.284;2022-08-03T01:03:06;2.78;;;0.90;;
18997;SDS011;9632;51.018;4.284;2022-08-03T01:05:39;1.77;;;1.00;;
18997;SDS011;9632;51.018;4.284;2022-08-03T01:08:30;4.82;;;0.95;;
18997;SDS011;9632;51.018;4.284;2022-08-03T01:14:14;2.35;;;0.90;;
18997;SDS011;9632;51.018;4.284;2022-08-03T01:16:58;3.63;;;0.95;;
18997;SDS011;9632;51.018;4.284;2022-08-03T01:19:40;2.83;;;0.90;;
18997;SDS011;9632;51.018;4.284;2022-08-03T01:27:50;3.33;;;1.00;;
18997;SDS011;9632;51.018;4.284;2022-08-03T01:30:29;3.72;;;1.00;;
18997;SDS011;9632;51.018;4.284;2022-08-03T01:32:59;2.30;;;0.98;;
18997;SDS011;9632;51.018;4.284;2022-08-03T01:35:58;2.35;;;0.80;;
18997;SDS011;9632;51.018;4.284;2022-08-03T01:38:33;4.65;;;0.88;;
18997;SDS011;9632;51.018;4.284;2022-08-03T01:41:06;1.65;;;0.77;;
18997;SDS011;9632;51.018;4.284;2022-08-03T01:43:36;3.25;;;0.90;;
18997;SDS011;9632;51.018;4.284;2022-08-03T01:46:06;3.42;;;0.95;;
18997;SDS011;9632;51.018;4.284;2022-08-03T01:48:35;4.72;;;0.70;;
18997;SDS011;9632;51.018;4.284;2022-08-03T01:51:03;4.00;;;0.98;;
18997;SDS011;9632;51.018;4.284;2022-08-03T01:53:32;3.53;;;0.80;;
18997;SDS011;9632;51.018;4.284;2022-08-03T01:55:59;1.55;;;0.60;;
18997;SDS011;9632;51.018;4.284;2022-08-03T01:58:27;2.15;;;0.90;;
18997;SDS011;9632;51.018;4.284;2022-08-03T02:00:55;2.17;;;0.70;;
18997;SDS011;9632;51.018;4.284;2022-08-03T02:03:24;2.15;;;0.85;;
18997;SDS011;9632;51.018;4.284;2022-08-03T02:05:52;2.80;;;0.80;;
18997;SDS011;9632;51.018;4.284;2022-08-03T02:08:19;2.78;;;0.80;;
18997;SDS011;9632;51.018;4.284;2022-08-03T02:10:49;2.17;;;0.80;;
18997;SDS011;9632;51.018;4.284;2022-08-03T02:13:16;4.13;;;0.82;;
18997;SDS011;9632;51.018;4.284;2022-08-03T02:15:45;3.60;;;0.80;;
18997;SDS011;9632;51.018;4.284;2022-08-03T02:18:11;4.55;;;0.80;;
18997;SDS011;9632;51.018;4.284;2022-08-03T02:20:38;3.03;;;1.13;;
18997;SDS011;9632;51.018;4.284;2022-08-03T02:23:07;3.83;;;0.88;;
18997;SDS011;9632;51.018;4.284;2022-08-03T02:25:40;3.70;;;0.95;;
18997;SDS011;9632;51.018;4.284;2022-08-03T02:28:11;2.25;;;0.70;;
18997;SDS011;9632;51.018;4.284;2022-08-03T02:30:43;2.13;;;0.75;;
18997;SDS011;9632;51.018;4.284;2022-08-03T02:33:11;3.45;;;0.80;;
18997;SDS011;9632;51.018;4.284;2022-08-03T02:35:43;4.82;;;0.82;;
18997;SDS011;9632;51.018;4.284;2022-08-03T02:38:12;2.53;;;0.82;;
18997;SDS011;9632;51.018;4.284;2022-08-03T02:40:40;3.63;;;0.70;;
18997;SDS011;9632;51.018;4.284;2022-08-03T02:43:09;4.45;;;0.90;;
18997;SDS011;9632;51.018;4.284;2022-08-03T02:45:41;2.13;;;0.80;;
18997;SDS011;9632;51.018;4.284;2022-08-03T02:48:10;4.53;;;0.88;;
18997;SDS011;9632;51.018;4.284;2022-08-03T02:50:39;3.53;;;0.80;;
18997;SDS011;9632;51.018;4.284;2022-08-03T02:53:07;1.67;;;0.80;;
18997;SDS011;9632;51.018;4.284;2022-08-03T02:55:35;3.55;;;0.80;;
18997;SDS011;9632;51.018;4.284;2022-08-03T02:58:03;2.92;;;1.00;;
18997;SDS011;9632;51.018;4.284;2022-08-03T03:00:30;2.58;;;0.80;;
18997;SDS011;9632;51.018;4.284;2022-08-03T03:03:00;2.47;;;0.75;;
18997;SDS011;9632;51.018;4.284;2022-08-03T03:05:26;2.53;;;1.05;;
18997;SDS011;9632;51.018;4.284;2022-08-03T03:07:53;3.08;;;0.80;;
18997;SDS011;9632;51.018;4.284;2022-08-03T03:10:23;2.38;;;0.70;;
18997;SDS011;9632;51.018;4.284;2022-08-03T03:12:54;3.50;;;0.80;;
18997;SDS011;9632;51.018;4.284;2022-08-03T03:15:21;2.30;;;0.75;;
18997;SDS011;9632;51.018;4.284;2022-08-03T03:17:49;1.63;;;0.70;;
18997;SDS011;9632;51.018;4.284;2022-08-03T03:20:17;1.98;;;0.80;;
18997;SDS011;9632;51.018;4.284;2022-08-03T03:22:45;4.15;;;0.82;;
18997;SDS011;9632;51.018;4.284;2022-08-03T03:25:13;5.15;;;1.05;;
18997;SDS011;9632;51.018;4.284;2022-08-03T03:27:39;5.30;;;0.82;;
18997;SDS011;9632;51.018;4.284;2022-08-03T03:30:05;4.10;;;0.88;;
18997;SDS011;9632;51.018;4.284;2022-08-03T03:32:32;6.60;;;0.77;;
18997;SDS011;9632;51.018;4.284;2022-08-03T03:34:57;6.20;;;1.13;;
18997;SDS011;9632;51.018;4.284;2022-08-03T03:37:25;3.45;;;0.65;;
18997;SDS011;9632;51.018;4.284;2022-08-03T03:39:54;3.80;;;0.85;;
18997;SDS011;9632;51.018;4.284;2022-08-03T03:42:20;2.92;;;1.02;;
18997;SDS011;9632;51.018;4.284;2022-08-03T03:44:46;3.22;;;0.88;;
18997;SDS011;9632;51.018;4.284;2022-08-03T03:47:12;2.38;;;0.88;;
18997;SDS011;9632;51.018;4.284;2022-08-03T03:49:38;8.10;;;1.35;;
18997;SDS011;9632;51.018;4.284;2022-08-03T03:52:04;2.72;;;0.80;;
18997;SDS011;9632;51.018;4.284;2022-08-03T03:54:43;3.40;;;1.00;;
18997;SDS011;9632;51.018;4.284;2022-08-03T03:57:09;5.35;;;1.13;;
18997;SDS011;9632;51.018;4.284;2022-08-03T03:59:41;4.75;;;1.08;;
18997;SDS011;9632;51.018;4.284;2022-08-03T04:02:08;2.97;;;0.73;;
18997;SDS011;9632;51.018;4.284;2022-08-03T04:04:35;2.80;;;0.80;;
18997;SDS011;9632;51.018;4.284;2022-08-03T04:07:19;5.53;;;0.80;;
18997;SDS011;9632;51.018;4.284;2022-08-03T04:10:17;3.97;;;0.77;;
18997;SDS011;9632;51.018;4.284;2022-08-03T04:13:06;3.28;;;0.95;;
18997;SDS011;9632;51.018;4.284;2022-08-03T04:15:34;5.47;;;0.90;;
18997;SDS011;9632;51.018;4.284;2022-08-03T04:18:03;3.00;;;0.63;;
18997;SDS011;9632;51.018;4.284;2022-08-03T04:20:31;4.60;;;0.70;;
18997;SDS011;9632;51.018;4.284;2022-08-03T04:22:57;3.22;;;0.82;;
18997;SDS011;9632;51.018;4.284;2022-08-03T04:25:26;2.45;;;0.77;;
18997;SDS011;9632;51.018;4.284;2022-08-03T04:27:57;5.30;;;1.05;;
18997;SDS011;9632;51.018;4.284;2022-08-03T04:30:26;5.20;;;0.90;;
18997;SDS011;9632;51.018;4.284;2022-08-03T04:32:56;12.30;;;1.50;;
18997;SDS011;9632;51.018;4.284;2022-08-03T04:35:30;4.70;;;1.20;;
18997;SDS011;9632;51.018;4.284;2022-08-03T04:38:01;6.22;;;1.17;;
18997;SDS011;9632;51.018;4.284;2022-08-03T04:40:35;3.13;;;0.93;;
18997;SDS011;9632;51.018;4.284;2022-08-03T04:43:03;3.17;;;1.08;;
18997;SDS011;9632;51.018;4.284;2022-08-03T04:45:30;3.30;;;0.98;;
18997;SDS011;9632;51.018;4.284;2022-08-03T04:47:57;7.50;;;1.10;;
18997;SDS011;9632;51.018;4.284;2022-08-03T04:50:24;7.70;;;1.33;;
18997;SDS011;9632;51.018;4.284;2022-08-03T04:52:52;5.90;;;1.13;;
18997;SDS011;9632;51.018;4.284;2022-08-03T04:55:30;4.85;;;1.00;;
18997;SDS011;9632;51.018;4.284;2022-08-03T04:57:57;2.83;;;1.00;;
18997;SDS011;9632;51.018;4.284;2022-08-03T05:00:23;6.00;;;1.10;;
18997;SDS011;9632;51.018;4.284;2022-08-03T05:02:49;7.78;;;1.00;;
18997;SDS011;9632;51.018;4.284;2022-08-03T05:05:15;3.22;;;1.00;;
18997;SDS011;9632;51.018;4.284;2022-08-03T05:07:41;5.50;;;1.20;;
18997;SDS011;9632;51.018;4.284;2022-08-03T05:10:08;6.95;;;1.10;;
18997;SDS011;9632;51.018;4.284;2022-08-03T05:12:34;5.97;;;1.00;;
18997;SDS011;9632;51.018;4.284;2022-08-03T05:15:00;5.43;;;1.20;;
18997;SDS011;9632;51.018;4.284;2022-08-03T05:17:26;4.45;;;1.10;;
18997;SDS011;9632;51.018;4.284;2022-08-03T05:19:52;5.20;;;1.00;;
18997;SDS011;9632;51.018;4.284;2022-08-03T05:22:19;6.28;;;1.30;;
18997;SDS011;9632;51.018;4.284;2022-08-03T05:24:45;4.43;;;1.20;;
18997;SDS011;9632;51.018;4.284;2022-08-03T05:27:10;4.13;;;1.17;;
18997;SDS011;9632;51.018;4.284;2022-08-03T05:29:41;4.63;;;1.20;;
18997;SDS011;9632;51.018;4.284;2022-08-03T05:32:07;8.50;;;1.30;;
18997;SDS011;9632;51.018;4.284;2022-08-03T05:34:33;4.03;;;1.25;;
18997;SDS011;9632;51.018;4.284;2022-08-03T05:36:59;4.50;;;1.27;;
18997;SDS011;9632;51.018;4.284;2022-08-03T05:39:24;3.45;;;1.10;;
18997;SDS011;9632;51.018;4.284;2022-08-03T05:41:50;9.82;;;1.50;;
18997;SDS011;9632;51.018;4.284;2022-08-03T05:44:16;6.05;;;1.10;;
18997;SDS011;9632;51.018;4.284;2022-08-03T05:46:41;4.80;;;0.95;;
18997;SDS011;9632;51.018;4.284;2022-08-03T05:49:07;4.63;;;1.20;;
18997;SDS011;9632;51.018;4.284;2022-08-03T05:51:32;8.23;;;1.27;;
18997;SDS011;9632;51.018;4.284;2022-08-03T05:53:59;3.80;;;1.00;;
18997;SDS011;9632;51.018;4.284;2022-08-03T05:56:25;5.25;;;1.05;;
18997;SDS011;9632;51.018;4.284;2022-08-03T05:58:51;9.18;;;1.33;;
18997;SDS011;9632;51.018;4.284;2022-08-03T06:01:17;4.22;;;1.05;;
18997;SDS011;9632;51.018;4.284;2022-08-03T06:03:45;8.40;;;1.30;;
18997;SDS011;9632;51.018;4.284;2022-08-03T06:06:12;6.05;;;1.30;;
18997;SDS011;9632;51.018;4.284;2022-08-03T06:08:38;6.75;;;1.17;;
18997;SDS011;9632;51.018;4.284;2022-08-03T06:11:04;6.95;;;1.20;;
18997;SDS011;9632;51.018;4.284;2022-08-03T06:13:30;3.33;;;0.93;;
18997;SDS011;9632;51.018;4.284;2022-08-03T06:15:56;8.38;;;1.48;;
18997;SDS011;9632;51.018;4.284;2022-08-03T06:18:22;6.95;;;1.20;;
18997;SDS011;9632;51.018;4.284;2022-08-03T06:20:48;8.15;;;1.10;;
18997;SDS011;9632;51.018;4.284;2022-08-03T06:23:14;6.75;;;1.30;;
18997;SDS011;9632;51.018;4.284;2022-08-03T06:25:40;8.25;;;1.40;;
18997;SDS011;9632;51.018;4.284;2022-08-03T06:28:06;5.50;;;0.93;;
18997;SDS011;9632;51.018;4.284;2022-08-03T06:30:32;8.02;;;1.23;;
18997;SDS011;9632;51.018;4.284;2022-08-03T06:32:59;6.90;;;1.10;;
18997;SDS011;9632;51.018;4.284;2022-08-03T06:35:25;5.65;;;1.23;;
18997;SDS011;9632;51.018;4.284;2022-08-03T06:37:51;4.75;;;1.27;;
18997;SDS011;9632;51.018;4.284;2022-08-03T06:40:18;6.25;;;1.20;;
18997;SDS011;9632;51.018;4.284;2022-08-03T06:42:53;9.18;;;1.30;;
18997;SDS011;9632;51.018;4.284;2022-08-03T06:45:19;6.47;;;1.17;;
18997;SDS011;9632;51.018;4.284;2022-08-03T06:47:45;5.82;;;1.15;;
18997;SDS011;9632;51.018;4.284;2022-08-03T06:50:11;5.60;;;1.02;;
18997;SDS011;9632;51.018;4.284;2022-08-03T06:52:36;5.88;;;1.45;;
18997;SDS011;9632;51.018;4.284;2022-08-03T06:55:03;5.97;;;1.10;;
18997;SDS011;9632;51.018;4.284;2022-08-03T06:57:29;4.00;;;0.90;;
18997;SDS011;9632;51.018;4.284;2022-08-03T06:59:54;6.57;;;1.20;;
18997;SDS011;9632;51.018;4.284;2022-08-03T07:02:25;7.20;;;1.23;;
18997;SDS011;9632;51.018;4.284;2022-08-03T07:04:52;3.50;;;0.80;;
18997;SDS011;9632;51.018;4.284;2022-08-03T07:07:18;8.05;;;1.10;;
18997;SDS011;9632;51.018;4.284;2022-08-03T07:09:44;6.15;;;1.27;;
18997;SDS011;9632;51.018;4.284;2022-08-03T07:12:10;4.45;;;1.10;;
18997;SDS011;9632;51.018;4.284;2022-08-03T07:14:36;3.40;;;1.00;;
18997;SDS011;9632;51.018;4.284;2022-08-03T07:17:02;7.72;;;1.15;;
18997;SDS011;9632;51.018;4.284;2022-08-03T07:19:27;7.35;;;1.05;;
18997;SDS011;9632;51.018;4.284;2022-08-03T07:21:53;3.50;;;1.05;;
18997;SDS011;9632;51.018;4.284;2022-08-03T07:24:18;4.85;;;0.98;;
18997;SDS011;9632;51.018;4.284;2022-08-03T07:26:44;4.53;;;0.90;;
18997;SDS011;9632;51.018;4.284;2022-08-03T07:29:10;8.65;;;1.23;;
18997;SDS011;9632;51.018;4.284;2022-08-03T07:31:35;6.72;;;0.93;;
18997;SDS011;9632;51.018;4.284;2022-08-03T07:34:01;6.68;;;0.98;;
18997;SDS011;9632;51.018;4.284;2022-08-03T07:36:26;6.63;;;1.10;;
18997;SDS011;9632;51.018;4.284;2022-08-03T07:38:52;11.02;;;1.10;;
18997;SDS011;9632;51.018;4.284;2022-08-03T07:41:18;7.55;;;1.10;;
18997;SDS011;9632;51.018;4.284;2022-08-03T07:43:43;5.38;;;1.05;;
18997;SDS011;9632;51.018;4.284;2022-08-03T07:46:09;7.88;;;1.10;;
18997;SDS011;9632;51.018;4.284;2022-08-03T07:48:35;7.60;;;1.15;;
18997;SDS011;9632;51.018;4.284;2022-08-03T07:51:00;10.15;;;1.50;;
18997;SDS011;9632;51.018;4.284;2022-08-03T07:53:27;5.45;;;1.20;;
18997;SDS011;9632;51.018;4.284;2022-08-03T07:55:53;9.63;;;1.42;;
18997;SDS011;9632;51.018;4.284;2022-08-03T07:58:18;8.88;;;0.90;;
18997;SDS011;9632;51.018;4.284;2022-08-03T08:00:45;6.07;;;0.90;;
18997;SDS011;9632;51.018;4.284;2022-08-03T08:03:10;6.00;;;1.30;;
18997;SDS011;9632;51.018;4.284;2022-08-03T08:05:37;7.88;;;1.25;;
18997;SDS011;9632;51.018;4.284;2022-08-03T08:08:03;6.57;;;0.90;;
18997;SDS011;9632;51.018;4.284;2022-08-03T08:10:29;6.90;;;1.10;;
18997;SDS011;9632;51.018;4.284;2022-08-03T08:12:56;8.15;;;1.40;;
18997;SDS011;9632;51.018;4.284;2022-08-03T08:15:23;6.20;;;1.15;;
18997;SDS011;9632;51.018;4.284;2022-08-03T08:17:50;5.13;;;1.13;;
18997;SDS011;9632;51.018;4.284;2022-08-03T08:20:28;7.68;;;1.38;;
18997;SDS011;9632;51.018;4.284;2022-08-03T08:22:59;11.13;;;1.23;;
18997;SDS011;9632;51.018;4.284;2022-08-03T08:25:26;8.00;;;1.17;;
18997;SDS011;9632;51.018;4.284;2022-08-03T08:27:53;9.77;;;1.42;;
18997;SDS011;9632;51.018;4.284;2022-08-03T08:30:19;8.18;;;1.38;;
18997;SDS011;9632;51.018;4.284;2022-08-03T08:32:47;9.10;;;1.30;;
18997;SDS011;9632;51.018;4.284;2022-08-03T08:35:13;12.93;;;1.38;;
18997;SDS011;9632;51.018;4.284;2022-08-03T08:37:39;10.73;;;1.58;;
18997;SDS011;9632;51.018;4.284;2022-08-03T08:40:06;7.95;;;1.50;;
18997;SDS011;9632;51.018;4.284;2022-08-03T08:42:33;12.10;;;1.90;;
18997;SDS011;9632;51.018;4.284;2022-08-03T08:45:01;12.20;;;1.88;;
18997;SDS011;9632;51.018;4.284;2022-08-03T08:47:29;13.30;;;1.45;;
18997;SDS011;9632;51.018;4.284;2022-08-03T08:49:56;10.52;;;1.83;;
18997;SDS011;9632;51.018;4.284;2022-08-03T08:52:23;8.43;;;1.60;;
18997;SDS011;9632;51.018;4.284;2022-08-03T08:55:01;14.68;;;2.22;;
18997;SDS011;9632;51.018;4.284;2022-08-03T08:57:29;13.18;;;1.63;;
18997;SDS011;9632;51.018;4.284;2022-08-03T08:59:58;11.10;;;1.50;;
18997;SDS011;9632;51.018;4.284;2022-08-03T09:02:28;8.00;;;1.48;;
18997;SDS011;9632;51.018;4.284;2022-08-03T09:04:55;10.23;;;1.60;;
18997;SDS011;9632;51.018;4.284;2022-08-03T09:07:22;10.43;;;1.77;;
18997;SDS011;9632;51.018;4.284;2022-08-03T09:09:48;9.02;;;1.48;;
18997;SDS011;9632;51.018;4.284;2022-08-03T09:12:13;12.18;;;1.73;;
18997;SDS011;9632;51.018;4.284;2022-08-03T09:14:39;10.18;;;1.65;;
18997;SDS011;9632;51.018;4.284;2022-08-03T09:17:05;8.93;;;1.60;;
18997;SDS011;9632;51.018;4.284;2022-08-03T09:19:32;12.65;;;1.52;;
18997;SDS011;9632;51.018;4.284;2022-08-03T09:24:35;15.43;;;1.83;;
18997;SDS011;9632;51.018;4.284;2022-08-03T09:27:01;8.90;;;1.40;;
18997;SDS011;9632;51.018;4.284;2022-08-03T09:29:30;4.45;;;1.30;;
18997;SDS011;9632;51.018;4.284;2022-08-03T09:32:01;6.80;;;1.27;;
18997;SDS011;9632;51.018;4.284;2022-08-03T09:34:28;8.25;;;1.38;;
18997;SDS011;9632;51.018;4.284;2022-08-03T09:36:54;7.88;;;1.17;;
18997;SDS011;9632;51.018;4.284;2022-08-03T09:39:24;8.50;;;1.35;;
18997;SDS011;9632;51.018;4.284;2022-08-03T09:42:04;7.68;;;1.20;;
18997;SDS011;9632;51.018;4.284;2022-08-03T09:44:37;7.28;;;1.33;;
18997;SDS011;9632;51.018;4.284;2022-08-03T09:47:11;5.10;;;1.35;;
18997;SDS011;9632;51.018;4.284;2022-08-03T09:49:38;6.18;;;1.08;;
18997;SDS011;9632;51.018;4.284;2022-08-03T09:52:17;5.38;;;1.13;;
18997;SDS011;9632;51.018;4.284;2022-08-03T09:54:52;6.93;;;1.17;;
18997;SDS011;9632;51.018;4.284;2022-08-03T09:57:21;8.07;;;1.45;;
18997;SDS011;9632;51.018;4.284;2022-08-03T09:59:48;5.22;;;1.05;;
18997;SDS011;9632;51.018;4.284;2022-08-03T10:02:19;7.45;;;1.20;;
18997;SDS011;9632;51.018;4.284;2022-08-03T10:04:49;7.57;;;1.02;;
18997;SDS011;9632;51.018;4.284;2022-08-03T10:07:16;5.13;;;0.98;;
18997;SDS011;9632;51.018;4.284;2022-08-03T10:09:54;5.78;;;1.10;;
18997;SDS011;9632;51.018;4.284;2022-08-03T10:12:23;5.45;;;1.10;;
18997;SDS011;9632;51.018;4.284;2022-08-03T10:14:50;7.20;;;1.00;;
18997;SDS011;9632;51.018;4.284;2022-08-03T10:17:16;6.80;;;1.00;;
18997;SDS011;9632;51.018;4.284;2022-08-03T10:19:42;4.57;;;0.95;;
18997;SDS011;9632;51.018;4.284;2022-08-03T10:22:31;6.32;;;1.38;;
18997;SDS011;9632;51.018;4.284;2022-08-03T10:24:59;8.93;;;1.23;;
18997;SDS011;9632;51.018;4.284;2022-08-03T10:27:31;4.85;;;0.90;;
18997;SDS011;9632;51.018;4.284;2022-08-03T10:30:03;7.68;;;1.10;;
18997;SDS011;9632;51.018;4.284;2022-08-03T10:32:33;8.00;;;1.10;;
18997;SDS011;9632;51.018;4.284;2022-08-03T10:35:03;6.45;;;0.98;;
18997;SDS011;9632;51.018;4.284;2022-08-03T10:37:33;4.38;;;0.90;;
18997;SDS011;9632;51.018;4.284;2022-08-03T10:40:05;6.70;;;0.93;;
18997;SDS011;9632;51.018;4.284;2022-08-03T10:42:34;2.53;;;0.70;;
18997;SDS011;9632;51.018;4.284;2022-08-03T10:45:05;6.53;;;1.15;;
18997;SDS011;9632;51.018;4.284;2022-08-03T10:47:33;3.28;;;0.90;;
18997;SDS011;9632;51.018;4.284;2022-08-03T10:49:59;6.95;;;1.38;;
18997;SDS011;9632;51.018;4.284;2022-08-03T10:52:26;4.00;;;1.00;;
18997;SDS011;9632;51.018;4.284;2022-08-03T10:54:52;5.40;;;0.90;;
18997;SDS011;9632;51.018;4.284;2022-08-03T10:57:49;4.75;;;0.90;;
18997;SDS011;9632;51.018;4.284;2022-08-03T11:05:34;6.22;;;1.13;;
18997;SDS011;9632;51.018;4.284;2022-08-03T11:08:17;3.65;;;0.82;;
18997;SDS011;9632;51.018;4.284;2022-08-03T11:10:57;7.25;;;1.20;;
18997;SDS011;9632;51.018;4.284;2022-08-03T11:14:09;2.13;;;0.70;;
18997;SDS011;9632;51.018;4.284;2022-08-03T11:16:42;1.98;;;0.77;;
18997;SDS011;9632;51.018;4.284;2022-08-03T11:19:12;4.38;;;0.90;;
18997;SDS011;9632;51.018;4.284;2022-08-03T11:35:18;3.10;;;0.52;;
18997;SDS011;9632;51.018;4.284;2022-08-03T11:46:00;2.15;;;0.63;;
18997;SDS011;9632;51.018;4.284;2022-08-03T11:48:42;3.63;;;0.70;;
18997;SDS011;9632;51.018;4.284;2022-08-03T11:51:22;1.50;;;0.50;;
18997;SDS011;9632;51.018;4.284;2022-08-03T11:53:55;3.10;;;0.57;;
18997;SDS011;9632;51.018;4.284;2022-08-03T11:56:25;3.08;;;0.70;;
18997;SDS011;9632;51.018;4.284;2022-08-03T11:58:52;3.53;;;0.52;;
18997;SDS011;9632;51.018;4.284;2022-08-03T12:01:23;4.72;;;0.50;;
18997;SDS011;9632;51.018;4.284;2022-08-03T12:03:49;4.50;;;0.60;;
18997;SDS011;9632;51.018;4.284;2022-08-03T12:06:16;3.55;;;0.60;;
18997;SDS011;9632;51.018;4.284;2022-08-03T12:08:43;4.28;;;0.70;;
18997;SDS011;9632;51.018;4.284;2022-08-03T12:11:10;5.75;;;0.70;;
18997;SDS011;9632;51.018;4.284;2022-08-03T12:13:41;5.28;;;0.63;;
18997;SDS011;9632;51.018;4.284;2022-08-03T12:16:09;4.28;;;0.70;;
18997;SDS011;9632;51.018;4.284;2022-08-03T12:18:40;5.53;;;0.77;;
18997;SDS011;9632;51.018;4.284;2022-08-03T12:21:09;3.17;;;0.50;;
18997;SDS011;9632;51.018;4.284;2022-08-03T12:23:36;3.97;;;0.65;;
18997;SDS011;9632;51.018;4.284;2022-08-03T12:26:03;2.90;;;0.50;;
18997;SDS011;9632;51.018;4.284;2022-08-03T12:28:33;5.55;;;0.60;;
18997;SDS011;9632;51.018;4.284;2022-08-03T12:31:02;3.78;;;0.60;;
18997;SDS011;9632;51.018;4.284;2022-08-03T12:33:53;5.05;;;0.57;;
18997;SDS011;9632;51.018;4.284;2022-08-03T12:36:22;2.83;;;0.90;;
18997;SDS011;9632;51.018;4.284;2022-08-03T12:38:58;5.13;;;0.70;;
18997;SDS011;9632;51.018;4.284;2022-08-03T12:41:29;3.30;;;0.60;;
18997;SDS011;9632;51.018;4.284;2022-08-03T12:44:02;8.88;;;0.60;;
18997;SDS011;9632;51.018;4.284;2022-08-03T12:46:30;3.05;;;0.50;;
18997;SDS011;9632;51.018;4.284;2022-08-03T12:49:07;2.78;;;0.55;;
18997;SDS011;9632;51.018;4.284;2022-08-03T12:54:08;6.03;;;0.60;;
18997;SDS011;9632;51.018;4.284;2022-08-03T12:56:56;5.63;;;0.88;;
18997;SDS011;9632;51.018;4.284;2022-08-03T12:59:35;4.13;;;0.57;;
18997;SDS011;9632;51.018;4.284;2022-08-03T13:02:03;1.60;;;0.50;;
18997;SDS011;9632;51.018;4.284;2022-08-03T13:04:33;1.23;;;0.40;;
18997;SDS011;9632;51.018;4.284;2022-08-03T13:07:04;2.17;;;0.50;;
18997;SDS011;9632;51.018;4.284;2022-08-03T13:09:39;2.25;;;0.45;;
18997;SDS011;9632;51.018;4.284;2022-08-03T13:12:07;1.50;;;0.40;;
18997;SDS011;9632;51.018;4.284;2022-08-03T13:14:45;2.05;;;0.50;;
18997;SDS011;9632;51.018;4.284;2022-08-03T13:17:11;3.80;;;1.08;;
18997;SDS011;9632;51.018;4.284;2022-08-03T13:19:37;2.30;;;0.40;;
18997;SDS011;9632;51.018;4.284;2022-08-03T13:22:13;4.03;;;0.55;;
18997;SDS011;9632;51.018;4.284;2022-08-03T13:24:42;2.45;;;0.50;;
18997;SDS011;9632;51.018;4.284;2022-08-03T13:27:08;3.03;;;0.40;;
18997;SDS011;9632;51.018;4.284;2022-08-03T13:29:34;1.50;;;0.50;;
18997;SDS011;9632;51.018;4.284;2022-08-03T13:32:00;2.80;;;0.40;;
18997;SDS011;9632;51.018;4.284;2022-08-03T13:34:27;6.05;;;0.60;;
18997;SDS011;9632;51.018;4.284;2022-08-03T13:36:53;1.65;;;0.55;;
18997;SDS011;9632;51.018;4.284;2022-08-03T13:39:19;2.38;;;0.70;;
18997;SDS011;9632;51.018;4.284;2022-08-03T13:41:45;3.17;;;0.40;;
18997;SDS011;9632;51.018;4.284;2022-08-03T13:44:10;3.88;;;0.43;;
18997;SDS011;9632;51.018;4.284;2022-08-03T13:46:36;3.00;;;0.55;;
18997;SDS011;9632;51.018;4.284;2022-08-03T13:49:02;2.90;;;0.50;;
18997;SDS011;9632;51.018;4.284;2022-08-03T13:51:28;3.40;;;0.60;;
18997;SDS011;9632;51.018;4.284;2022-08-03T13:53:54;4.00;;;0.70;;
18997;SDS011;9632;51.018;4.284;2022-08-03T13:56:21;3.60;;;0.50;;
18997;SDS011;9632;51.018;4.284;2022-08-03T13:58:46;2.15;;;0.60;;
18997;SDS011;9632;51.018;4.284;2022-08-03T14:01:12;5.70;;;0.70;;
18997;SDS011;9632;51.018;4.284;2022-08-03T14:03:37;3.45;;;0.68;;
18997;SDS011;9632;51.018;4.284;2022-08-03T14:06:03;1.77;;;0.50;;
18997;SDS011;9632;51.018;4.284;2022-08-03T14:08:29;5.15;;;0.60;;
18997;SDS011;9632;51.018;4.284;2022-08-03T14:10:54;2.28;;;0.60;;
18997;SDS011;9632;51.018;4.284;2022-08-03T14:13:20;1.45;;;0.45;;
18997;SDS011;9632;51.018;4.284;2022-08-03T14:15:46;3.75;;;0.55;;
18997;SDS011;9632;51.018;4.284;2022-08-03T14:18:12;2.97;;;0.68;;
18997;SDS011;9632;51.018;4.284;2022-08-03T14:20:38;3.40;;;0.55;;
18997;SDS011;9632;51.018;4.284;2022-08-03T14:23:04;4.43;;;0.60;;
18997;SDS011;9632;51.018;4.284;2022-08-03T14:25:30;3.40;;;0.50;;
18997;SDS011;9632;51.018;4.284;2022-08-03T14:27:56;2.28;;;0.50;;
18997;SDS011;9632;51.018;4.284;2022-08-03T14:30:22;3.85;;;0.70;;
18997;SDS011;9632;51.018;4.284;2022-08-03T14:32:47;1.25;;;0.65;;
18997;SDS011;9632;51.018;4.284;2022-08-03T14:35:13;1.77;;;0.30;;
18997;SDS011;9632;51.018;4.284;2022-08-03T14:37:39;2.67;;;0.60;;
18997;SDS011;9632;51.018;4.284;2022-08-03T14:40:04;1.88;;;0.57;;
18997;SDS011;9632;51.018;4.284;2022-08-03T14:42:31;1.98;;;0.63;;
18997;SDS011;9632;51.018;4.284;2022-08-03T14:44:56;2.38;;;0.55;;
18997;SDS011;9632;51.018;4.284;2022-08-03T14:47:22;2.67;;;0.52;;
18997;SDS011;9632;51.018;4.284;2022-08-03T14:49:47;4.22;;;0.52;;
18997;SDS011;9632;51.018;4.284;2022-08-03T14:52:13;4.18;;;0.73;;
18997;SDS011;9632;51.018;4.284;2022-08-03T14:54:39;1.98;;;0.52;;
18997;SDS011;9632;51.018;4.284;2022-08-03T14:57:04;2.92;;;0.40;;
18997;SDS011;9632;51.018;4.284;2022-08-03T14:59:30;3.58;;;0.75;;
18997;SDS011;9632;51.018;4.284;2022-08-03T15:01:56;2.97;;;0.43;;
18997;SDS011;9632;51.018;4.284;2022-08-03T15:04:21;3.08;;;0.50;;
18997;SDS011;9632;51.018;4.284;2022-08-03T15:06:47;3.97;;;0.63;;
18997;SDS011;9632;51.018;4.284;2022-08-03T15:09:13;2.40;;;0.50;;
18997;SDS011;9632;51.018;4.284;2022-08-03T15:11:38;1.80;;;0.50;;
18997;SDS011;9632;51.018;4.284;2022-08-03T15:14:04;2.65;;;0.50;;
18997;SDS011;9632;51.018;4.284;2022-08-03T15:16:30;3.67;;;0.65;;
18997;SDS011;9632;51.018;4.284;2022-08-03T15:18:56;2.38;;;0.50;;
18997;SDS011;9632;51.018;4.284;2022-08-03T15:21:21;3.55;;;0.70;;
18997;SDS011;9632;51.018;4.284;2022-08-03T15:23:47;1.55;;;0.60;;
18997;SDS011;9632;51.018;4.284;2022-08-03T15:26:13;1.42;;;0.40;;
18997;SDS011;9632;51.018;4.284;2022-08-03T15:28:38;5.13;;;0.70;;
18997;SDS011;9632;51.018;4.284;2022-08-03T15:31:04;2.90;;;0.65;;
18997;SDS011;9632;51.018;4.284;2022-08-03T15:33:30;3.60;;;0.55;;
18997;SDS011;9632;51.018;4.284;2022-08-03T15:35:56;3.25;;;0.50;;
18997;SDS011;9632;51.018;4.284;2022-08-03T15:38:22;2.42;;;0.50;;
18997;SDS011;9632;51.018;4.284;2022-08-03T15:40:47;3.38;;;0.57;;
18997;SDS011;9632;51.018;4.284;2022-08-03T15:43:13;2.25;;;0.60;;
18997;SDS011;9632;51.018;4.284;2022-08-03T15:45:39;2.88;;;0.57;;
18997;SDS011;9632;51.018;4.284;2022-08-03T15:48:05;2.03;;;0.50;;
18997;SDS011;9632;51.018;4.284;2022-08-03T15:50:31;3.15;;;0.50;;